LFSO

Nancy-Ochey (BA 133) Air Base

Airport
ICAO code
LFSO
Summary
ICAO Region
EUR
ICAO Territory
Location

, Lorraine

Serving
Nancy
Elevation
1106 ft
Coordinates
48° 34' 59" N , 5° 57' 18" E
Metar
LFSO 301630Z AUTO 30013KT 270V330 9999 FEW016/// BKN050/// BKN084/// ///CB 14/09 Q1008 TEMPO 1500 TSRA BKN005 BKN030CB

Runways

Designator Length Width Surface Rops
2/20 2401 45 CON No/No

Airport map

Aerial View

SKYbrary Partners:

Safety knowledge contributed by: